Time;durP1;ratioP1;P1;durP2;ratioP2;P2;SDS_P1;SDS_P2;PMS_P1;PMS_P2;Temp;Humidity;BMP_temperature;BMP_pressure;BME280_temperature;BME280_humidity;BME280_pressure;Samples;Min_cycle;Max_cycle;Signal;HPM_P1;HPM_P2
2023/08/27 00:01:23;;;;;;;20.30;12.60;;;;;;;34.11;28.27;100603.47;5002660;28;20049;-73
2023/08/27 00:03:51;;;;;;;16.90;12.38;;;;;;;34.07;28.38;100601.09;5009178;28;20049;-75
2023/08/27 00:06:20;;;;;;;19.25;11.98;;;;;;;34.05;27.97;100597.66;5003825;28;20053;-74
2023/08/27 00:08:50;;;;;;;17.10;11.70;;;;;;;34.07;27.94;100585.84;5007133;28;20057;-73
2023/08/27 00:11:18;;;;;;;16.27;12.32;;;;;;;34.14;28.06;100591.66;5006320;28;20097;-72
2023/08/27 00:13:47;;;;;;;18.90;12.10;;;;;;;34.07;27.88;100593.88;5007092;28;20110;-71
2023/08/27 00:16:17;;;;;;;18.92;13.02;;;;;;;33.86;28.06;100598.97;5008665;28;20125;-71
2023/08/27 00:18:46;;;;;;;17.15;12.68;;;;;;;33.84;29.09;100600.91;5009964;28;20045;-72
2023/08/27 00:21:14;;;;;;;22.73;12.77;;;;;;;33.85;28.44;100591.88;5006410;28;20057;-74
2023/08/27 00:23:43;;;;;;;16.30;11.70;;;;;;;33.98;28.06;100599.91;5014167;28;20081;-74
2023/08/27 00:26:11;;;;;;;18.33;11.77;;;;;;;34.05;28.26;100600.34;5013872;28;20566;-73
2023/08/27 00:28:40;;;;;;;22.55;12.88;;;;;;;34.11;27.39;100605.28;5006901;28;20050;-72
2023/08/27 00:31:09;;;;;;;16.42;11.77;;;;;;;34.09;27.81;100602.69;5010379;28;20549;-71
2023/08/27 00:33:41;;;;;;;18.38;12.77;;;;;;;34.09;27.79;100591.94;5006760;28;20496;-75
2023/08/27 00:36:10;;;;;;;17.67;12.77;;;;;;;34.00;27.71;100596.16;5001517;28;20055;-75
2023/08/27 00:38:38;;;;;;;17.73;12.52;;;;;;;33.99;28.30;100590.88;4995679;28;20050;-76
2023/08/27 00:41:10;;;;;;;17.65;11.90;;;;;;;33.98;28.30;100591.84;4996688;28;20053;-76
2023/08/27 00:43:41;;;;;;;17.40;12.68;;;;;;;33.94;27.87;100593.03;5000199;28;20066;-72
2023/08/27 00:46:09;;;;;;;;;;;;;;;33.93;27.91;100594.88;5004119;28;20050;-74
2023/08/27 00:48:40;;;;;;;16.85;11.95;;;;;;;33.94;28.09;100590.34;4994432;28;19951;-75
2023/08/27 00:51:09;;;;;;;20.10;12.30;;;;;;;33.89;27.86;100595.19;5007050;28;20053;-77
2023/08/27 00:53:41;;;;;;;16.58;11.82;;;;;;;33.88;27.73;100599.72;5003088;28;20051;-74
2023/08/27 00:56:12;;;;;;;17.13;11.55;;;;;;;33.83;28.18;100599.16;5003879;28;20049;-75
2023/08/27 00:58:42;;;;;;;14.40;11.48;;;;;;;33.72;27.78;100597.25;4998668;28;20070;-74
2023/08/27 01:01:11;;;;;;;17.85;12.43;;;;;;;33.59;28.45;100599.06;5000991;28;20109;-75
2023/08/27 01:03:41;;;;;;;18.25;12.20;;;;;;;33.55;29.03;100597.53;5008106;28;20046;-73
2023/08/27 01:06:12;;;;;;;16.88;11.50;;;;;;;33.53;28.89;100607.50;4997733;28;20057;-77
2023/08/27 01:08:53;;;;;;;14.38;10.45;;;;;;;33.49;28.09;100598.81;5000176;28;20092;-75
2023/08/27 01:11:34;;;;;;;15.30;11.23;;;;;;;33.47;28.14;100600.75;5006027;28;20123;-75
2023/08/27 01:14:06;;;;;;;18.45;9.77;;;;;;;33.41;28.12;100598.47;5009719;28;20149;-72
2023/08/27 01:16:36;;;;;;;12.73;9.02;;;;;;;33.36;28.23;100597.94;5007826;28;20046;-75
2023/08/27 01:19:17;;;;;;;13.65;8.65;;;;;;;33.35;28.40;100601.56;5001839;28;20089;-75
2023/08/27 01:21:49;;;;;;;16.90;8.98;;;;;;;33.35;28.24;100605.16;4995895;28;20057;-76
2023/08/27 01:24:18;;;;;;;13.93;8.75;;;;;;;33.34;28.20;100605.25;5005611;28;20468;-71
2023/08/27 01:26:50;;;;;;;11.57;8.20;;;;;;;33.28;28.61;100605.66;5011943;28;20069;-74
2023/08/27 01:29:25;;;;;;;13.65;8.57;;;;;;;33.17;28.12;100609.94;4992808;28;20050;-77
2023/08/27 01:32:04;;;;;;;12.43;8.70;;;;;;;33.14;28.54;100615.47;5028008;28;20048;-74
2023/08/27 01:34:34;;;;;;;11.65;8.63;;;;;;;33.09;29.48;100609.56;5030855;28;20049;-74
2023/08/27 01:37:05;;;;;;;17.38;9.50;;;;;;;33.06;29.54;100615.16;5013410;28;20109;-76
2023/08/27 01:39:34;;;;;;;12.60;8.88;;;;;;;33.01;30.00;100614.56;5015635;28;20113;-75
2023/08/27 01:42:05;;;;;;;12.15;9.20;;;;;;;32.93;30.09;100611.53;5011450;28;20054;-76
2023/08/27 01:44:33;;;;;;;14.70;9.25;;;;;;;32.90;30.28;100611.75;5007111;28;20508;-73
2023/08/27 01:47:02;;;;;;;15.93;9.75;;;;;;;32.80;29.88;100610.63;5010591;28;20570;-75
2023/08/27 01:49:37;;;;;;;13.18;8.52;;;;;;;32.74;29.68;100610.06;5012789;28;20123;-77
2023/08/27 01:52:10;;;;;;;13.45;8.45;;;;;;;32.69;30.20;100616.72;5007537;28;20050;-75
2023/08/27 01:54:39;;;;;;;17.67;9.20;;;;;;;32.66;30.17;100620.41;5002610;28;20141;-74
2023/08/27 01:57:08;;;;;;;15.48;9.13;;;;;;;32.64;30.41;100622.34;5002824;28;20042;-77
2023/08/27 01:59:37;;;;;;;11.00;7.80;;;;;;;32.59;31.15;100628.97;5000315;28;20157;-73
2023/08/27 02:02:05;;;;;;;13.23;8.93;;;;;;;32.51;31.80;100632.16;5006944;28;20076;-75
2023/08/27 02:04:38;;;;;;;13.80;8.48;;;;;;;32.42;32.05;100632.72;5003005;28;20137;-76
2023/08/27 02:07:09;;;;;;;12.07;8.38;;;;;;;32.27;33.11;100638.06;5001496;28;20050;-77
2023/08/27 02:09:37;;;;;;;12.73;8.48;;;;;;;32.14;33.51;100637.16;4992360;28;20050;-76
2023/08/27 02:12:06;;;;;;;13.45;8.98;;;;;;;32.01;34.07;100638.88;4996147;28;20400;-76
2023/08/27 02:14:36;;;;;;;11.82;8.18;;;;;;;31.90;34.25;100642.16;5005377;28;20512;-77
2023/08/27 02:17:05;;;;;;;15.38;8.75;;;;;;;31.80;34.59;100649.03;5003247;28;21214;-74
2023/08/27 02:19:34;;;;;;;12.05;8.35;;;;;;;31.76;34.31;100645.69;4991838;28;20046;-75
2023/08/27 02:22:02;;;;;;;13.52;8.73;;;;;;;31.67;34.74;100649.78;4997908;28;20449;-76
2023/08/27 02:24:33;;;;;;;12.95;9.35;;;;;;;31.60;35.36;100658.28;5001108;28;20046;-75
2023/08/27 02:27:09;;;;;;;13.00;8.38;;;;;;;31.48;35.48;100659.88;4995654;28;20054;-76
2023/08/27 02:29:38;;;;;;;14.10;8.88;;;;;;;31.35;35.90;100659.69;4999466;28;20042;-76
2023/08/27 02:32:07;;;;;;;12.18;8.38;;;;;;;31.21;36.04;100649.81;5009218;28;20099;-77
2023/08/27 02:34:35;;;;;;;15.52;8.63;;;;;;;31.16;36.40;100661.72;5013128;28;20046;-75
2023/08/27 02:37:09;;;;;;;13.63;9.00;;;;;;;30.95;36.71;100670.03;5000356;28;20042;-76
2023/08/27 02:39:39;;;;;;;12.10;9.10;;;;;;;30.76;37.03;100669.31;5001252;28;20046;-74
2023/08/27 02:42:17;;;;;;;11.68;8.70;;;;;;;30.55;36.99;100677.56;5004369;28;20054;-80
2023/08/27 02:44:48;;;;;;;12.85;8.52;;;;;;;30.39;36.89;100682.03;4999579;28;20556;-75
2023/08/27 02:47:16;;;;;;;13.77;9.00;;;;;;;30.22;37.71;100677.59;4995279;28;20385;-79
2023/08/27 02:49:45;;;;;;;14.50;9.27;;;;;;;30.06;37.68;100681.06;4999296;28;20054;-78
2023/08/27 02:52:13;;;;;;;13.10;9.10;;;;;;;29.90;38.17;100688.16;4999450;28;20085;-76
2023/08/27 02:54:49;;;;;;;11.32;8.73;;;;;;;29.74;38.71;100684.56;5008203;28;20053;-76
2023/08/27 02:57:18;;;;;;;13.15;8.77;;;;;;;29.55;39.13;100684.59;4998987;28;20062;-74
2023/08/27 02:59:46;;;;;;;13.98;9.50;;;;;;;29.36;39.01;100690.84;4993948;28;20054;-75
2023/08/27 03:02:15;;;;;;;13.50;9.38;;;;;;;29.10;39.85;100699.28;4996689;28;20050;-76
2023/08/27 03:04:48;;;;;;;14.55;9.43;;;;;;;28.85;40.03;100705.75;4997681;28;20584;-78
2023/08/27 03:07:16;;;;;;;16.00;9.55;;;;;;;28.69;40.34;100699.44;5008385;28;20046;-74
2023/08/27 03:09:47;;;;;;;13.77;9.68;;;;;;;28.48;40.83;100711.94;5000360;28;20046;-75
2023/08/27 03:12:15;;;;;;;12.77;9.40;;;;;;;28.30;41.23;100718.94;5000954;28;20054;-75
2023/08/27 03:14:44;;;;;;;12.73;8.80;;;;;;;28.07;41.29;100723.47;5008983;28;20057;-77
2023/08/27 03:17:15;;;;;;;14.00;9.25;;;;;;;27.95;41.71;100724.00;4999190;28;20054;-75
2023/08/27 03:19:44;;;;;;;14.70;9.30;;;;;;;27.76;41.95;100727.44;5002769;28;20060;-75
2023/08/27 03:22:12;;;;;;;13.40;9.50;;;;;;;27.65;42.28;100732.34;5006670;28;20119;-77
2023/08/27 03:24:41;;;;;;;15.10;9.75;;;;;;;27.50;42.46;100730.31;5009194;28;20054;-75
2023/08/27 03:27:11;;;;;;;14.82;10.05;;;;;;;27.34;42.68;100733.59;5003624;28;20055;-75
2023/08/27 03:29:42;;;;;;;14.77;10.25;;;;;;;27.21;42.88;100748.28;5011215;28;20046;-76
2023/08/27 03:32:11;;;;;;;14.82;9.80;;;;;;;27.05;43.28;100747.13;5012373;28;20049;-75
2023/08/27 03:34:39;;;;;;;13.52;9.68;;;;;;;26.93;43.46;100754.66;5015092;28;20515;-75
2023/08/27 03:37:08;;;;;;;14.32;10.23;;;;;;;26.82;43.83;100758.63;5005908;28;20073;-78
2023/08/27 03:39:41;;;;;;;14.77;10.13;;;;;;;26.61;44.30;100761.19;5005684;28;20431;-76
2023/08/27 03:42:11;;;;;;;14.15;9.75;;;;;;;26.47;44.34;100764.31;5005309;28;20151;-76
2023/08/27 03:44:40;;;;;;;16.77;9.68;;;;;;;26.41;44.42;100767.19;5007013;28;20061;-77
2023/08/27 03:47:09;;;;;;;14.55;9.63;;;;;;;26.29;44.93;100778.22;5006493;28;20728;-75
2023/08/27 03:49:40;;;;;;;16.73;9.77;;;;;;;26.26;44.73;100784.50;5004592;28;20485;-76
2023/08/27 03:52:09;;;;;;;15.70;10.05;;;;;;;26.21;44.92;100790.91;5006374;28;20045;-79
2023/08/27 03:54:37;;;;;;;21.08;11.18;;;;;;;26.16;45.43;100793.72;5007985;28;20081;-78
2023/08/27 03:57:06;;;;;;;16.23;10.43;;;;;;;26.04;45.52;100797.63;5002722;28;20372;-79
2023/08/27 03:59:36;;;;;;;17.17;9.80;;;;;;;25.84;45.80;100798.31;5002001;28;20064;-76
2023/08/27 04:02:08;;;;;;;16.70;10.65;;;;;;;25.76;45.98;100810.06;5007481;28;20050;-77
2023/08/27 04:04:36;;;;;;;17.23;10.85;;;;;;;25.62;46.56;100816.66;5008476;28;20058;-74
2023/08/27 04:07:05;;;;;;;17.15;9.68;;;;;;;25.54;46.42;100826.66;4999023;28;20117;-75
2023/08/27 04:09:34;;;;;;;15.27;9.77;;;;;;;25.44;46.84;100830.50;4999733;28;20107;-73
2023/08/27 04:12:04;;;;;;;16.23;9.90;;;;;;;25.37;47.11;100834.25;5001723;28;20519;-75
2023/08/27 04:14:35;;;;;;;13.77;10.35;;;;;;;25.25;46.95;100836.38;4999077;28;20056;-77
2023/08/27 04:17:04;;;;;;;14.38;9.88;;;;;;;25.16;48.14;100841.91;4995837;28;20062;-75
2023/08/27 04:19:32;;;;;;;16.70;11.15;;;;;;;25.03;47.74;100835.22;4995938;28;20453;-76
2023/08/27 04:22:01;;;;;;;17.10;10.95;;;;;;;24.95;47.92;100839.91;5006217;28;20054;-78
2023/08/27 04:24:30;;;;;;;17.45;9.85;;;;;;;24.85;49.09;100839.25;5007890;28;20154;-76
2023/08/27 04:26:58;;;;;;;16.17;10.50;;;;;;;24.73;49.08;100840.47;5006543;28;20046;-78
2023/08/27 04:29:28;;;;;;;16.05;9.82;;;;;;;24.69;48.94;100838.81;5007275;28;20065;-75
2023/08/27 04:31:58;;;;;;;15.93;10.38;;;;;;;24.63;49.29;100846.94;5011816;28;20092;-79
2023/08/27 04:34:26;;;;;;;14.38;10.43;;;;;;;24.55;49.59;100841.00;5020357;28;20491;-76
2023/08/27 04:36:58;;;;;;;15.10;10.18;;;;;;;24.47;49.99;100846.50;5010375;28;20049;-76
2023/08/27 04:39:27;;;;;;;16.67;11.10;;;;;;;24.41;50.19;100847.47;5003683;28;20049;-77
2023/08/27 04:41:55;;;;;;;15.88;10.55;;;;;;;24.38;49.82;100852.84;5001054;28;20045;-79
2023/08/27 04:44:31;;;;;;;16.02;10.88;;;;;;;24.34;50.16;100853.84;5003849;28;20081;-78
2023/08/27 04:47:04;;;;;;;15.75;10.55;;;;;;;24.29;49.95;100853.09;5017548;28;20054;-78
2023/08/27 04:49:33;;;;;;;15.52;10.82;;;;;;;24.21;50.65;100855.06;5020713;28;20065;-77
2023/08/27 04:52:03;;;;;;;17.42;11.43;;;;;;;24.14;50.62;100848.19;5020925;28;20089;-77
2023/08/27 04:54:32;;;;;;;16.20;10.88;;;;;;;24.11;51.26;100854.44;5017654;28;20077;-79
2023/08/27 04:57:08;;;;;;;17.33;11.48;;;;;;;24.08;50.79;100862.44;5016288;28;20038;-78
2023/08/27 04:59:37;;;;;;;16.27;11.00;;;;;;;24.02;51.97;100871.38;5008696;28;20061;-79
2023/08/27 05:02:08;;;;;;;15.82;10.32;;;;;;;23.88;52.50;100868.22;5000422;28;20046;-79
2023/08/27 05:04:40;;;;;;;16.55;10.15;;;;;;;23.67;52.84;100869.56;5008173;28;20080;-78
2023/08/27 05:07:09;;;;;;;17.33;10.82;;;;;;;23.49;53.18;100865.56;5008515;28;20076;-79
2023/08/27 05:09:37;;;;;;;16.73;10.18;;;;;;;23.43;53.17;100868.31;4997959;28;20617;-78
2023/08/27 05:12:07;;;;;;;16.30;10.65;;;;;;;23.43;54.01;100870.97;4996264;28;20053;-76
2023/08/27 05:14:35;;;;;;;16.85;11.27;;;;;;;23.41;53.57;100868.38;5000251;28;20494;-77
2023/08/27 05:17:11;;;;;;;15.57;10.80;;;;;;;23.37;53.64;100873.75;4993158;28;20054;-78
2023/08/27 05:19:40;;;;;;;15.60;10.27;;;;;;;23.32;53.83;100871.22;5001637;28;20050;-80
2023/08/27 05:22:09;;;;;;;15.10;10.52;;;;;;;23.25;54.39;100872.25;4996216;28;20065;-77
2023/08/27 05:24:40;;;;;;;15.52;10.68;;;;;;;23.19;54.34;100864.44;5006523;28;20058;-79
2023/08/27 05:27:11;;;;;;;16.40;10.52;;;;;;;23.20;54.30;100868.81;5007433;28;20162;-80
2023/08/27 05:29:39;;;;;;;17.17;10.70;;;;;;;23.19;54.55;100880.28;5007559;28;20042;-79
2023/08/27 05:32:10;;;;;;;17.42;10.75;;;;;;;23.14;54.58;100877.75;5010073;28;20042;-81
2023/08/27 05:34:38;;;;;;;14.40;10.20;;;;;;;23.11;54.50;100880.47;5003549;28;20064;-80
2023/08/27 05:37:14;;;;;;;15.90;10.85;;;;;;;23.02;55.51;100885.03;5004337;28;20054;-83
2023/08/27 05:39:43;;;;;;;17.08;10.52;;;;;;;22.94;55.80;100882.50;5005657;28;20064;-80
2023/08/27 05:42:11;;;;;;;21.95;11.55;;;;;;;22.90;55.81;100892.25;5004216;28;20517;-80
2023/08/27 05:44:40;;;;;;;19.35;11.77;;;;;;;22.84;56.30;100880.94;5008028;28;20069;-81
2023/08/27 05:47:18;;;;;;;18.33;11.27;;;;;;;22.71;56.43;100891.72;5006847;28;20046;-81
2023/08/27 05:49:46;;;;;;;17.15;11.07;;;;;;;22.66;56.65;100896.22;5003813;28;20148;-80
2023/08/27 05:52:15;;;;;;;17.77;11.15;;;;;;;22.64;56.65;100895.38;5005250;28;20050;-80
2023/08/27 05:54:45;;;;;;;16.17;10.93;;;;;;;22.57;56.80;100899.03;5004612;28;20049;-79
2023/08/27 05:57:21;;;;;;;15.02;10.20;;;;;;;22.51;57.44;100904.41;5009421;28;20121;-81
2023/08/27 05:59:50;;;;;;;18.70;11.30;;;;;;;22.43;57.55;100898.41;5003037;28;20053;-80
2023/08/27 06:02:20;;;;;;;18.17;11.52;;;;;;;22.38;57.73;100901.13;5000591;28;20042;-80
2023/08/27 06:04:59;;;;;;;17.23;11.05;;;;;;;22.36;58.02;100914.31;5004590;28;20057;-80
2023/08/27 06:07:28;;;;;;;16.88;11.25;;;;;;;22.32;58.67;100912.63;5003385;28;20054;-80
2023/08/27 06:09:56;;;;;;;15.50;10.68;;;;;;;22.18;58.98;100917.22;5007582;28;20049;-81
2023/08/27 06:12:25;;;;;;;15.20;11.27;;;;;;;21.98;60.23;100921.94;5004069;28;20054;-82
2023/08/27 06:14:59;;;;;;;15.50;10.77;;;;;;;21.82;61.01;100918.66;5004616;28;20054;-82
2023/08/27 06:17:30;;;;;;;18.92;11.07;;;;;;;21.65;60.78;100911.00;5003299;28;20058;-82
2023/08/27 06:19:58;;;;;;;20.08;11.65;;;;;;;21.61;61.26;100925.09;5008528;28;20054;-82
2023/08/27 06:22:27;;;;;;;18.55;11.23;;;;;;;21.54;61.95;100930.44;5006319;28;20050;-82
2023/08/27 06:24:59;;;;;;;18.40;11.13;;;;;;;21.46;62.02;100932.31;5000469;28;20096;-81
2023/08/27 06:27:28;;;;;;;17.60;10.98;;;;;;;21.41;62.16;100934.09;5006609;28;20076;-81
2023/08/27 06:29:56;;;;;;;18.60;11.60;;;;;;;21.38;62.67;100944.66;4998312;28;20073;-81
2023/08/27 06:32:25;;;;;;;18.52;11.73;;;;;;;21.33;62.85;100935.94;5007200;28;20058;-82
2023/08/27 06:35:06;;;;;;;17.30;11.50;;;;;;;21.25;62.98;100943.91;5006537;28;20042;-81
2023/08/27 06:37:34;;;;;;;16.58;11.38;;;;;;;21.09;64.39;100943.22;5006005;28;20500;-80
2023/08/27 06:40:03;;;;;;;16.02;10.60;;;;;;;21.01;65.05;100944.22;5012697;28;20061;-80
2023/08/27 06:42:31;;;;;;;17.52;10.95;;;;;;;20.99;65.29;100949.47;5004772;28;20129;-79
2023/08/27 06:45:04;;;;;;;17.73;10.57;;;;;;;20.99;65.03;100954.72;5006121;28;20050;-80
2023/08/27 06:47:33;;;;;;;17.23;11.40;;;;;;;20.97;65.27;100958.28;5007196;28;20061;-81
2023/08/27 06:50:04;;;;;;;18.10;11.80;;;;;;;20.90;65.33;100958.31;5002918;28;20121;-81
2023/08/27 06:52:33;;;;;;;19.77;11.57;;;;;;;20.82;65.46;100954.03;5011928;28;20108;-80
2023/08/27 06:55:13;;;;;;;18.50;11.52;;;;;;;20.71;66.49;100957.63;5004027;28;20064;-82
2023/08/27 06:57:41;;;;;;;17.60;11.32;;;;;;;20.66;66.66;100964.69;5005658;28;20047;-79
2023/08/27 07:00:11;;;;;;;17.45;11.75;;;;;;;20.60;66.72;100975.25;5007014;28;20137;-82
2023/08/27 07:02:50;;;;;;;18.70;11.98;;;;;;;20.53;67.23;100978.78;5002572;28;20054;-80
2023/08/27 07:05:25;;;;;;;16.90;11.43;;;;;;;20.49;67.47;100982.31;5008299;28;20535;-83
2023/08/27 07:07:58;;;;;;;15.68;10.88;;;;;;;20.46;67.46;100987.63;5006684;28;20069;-83
2023/08/27 07:10:31;;;;;;;18.50;11.18;;;;;;;20.43;67.55;100983.25;5009249;28;20058;-83
2023/08/27 07:13:01;;;;;;;19.20;11.02;;;;;;;20.41;67.40;100987.66;5012297;28;20084;-80
2023/08/27 07:15:29;;;;;;;18.17;11.60;;;;;;;20.38;67.60;100999.94;5004697;28;20148;-81
2023/08/27 07:18:07;;;;;;;;;;;;;;;;;;;;;
2023/08/27 07:20:38;;;;;;;18.75;10.70;;;;;;;20.32;67.96;101007.84;5005443;28;20060;-79
2023/08/27 07:23:06;;;;;;;20.15;10.77;;;;;;;20.29;68.14;101007.00;5004693;28;20058;-81
2023/08/27 07:25:38;;;;;;;18.52;11.45;;;;;;;20.24;67.99;101010.53;5013945;28;20062;-83
2023/08/27 07:28:11;;;;;;;16.92;9.85;;;;;;;20.21;68.02;101013.19;5012615;28;20717;-81
2023/08/27 07:30:40;;;;;;;16.65;9.80;;;;;;;20.19;67.98;101012.31;5007571;28;20046;-81
2023/08/27 07:33:11;;;;;;;19.77;8.95;;;;;;;20.15;68.14;101008.81;5010532;28;20054;-80
2023/08/27 07:35:43;;;;;;;15.65;9.07;;;;;;;20.16;68.22;101010.59;5008103;28;20050;-81
2023/08/27 07:38:16;;;;;;;15.52;9.82;;;;;;;20.17;67.90;101012.31;5009744;28;20050;-80
2023/08/27 07:40:45;;;;;;;17.55;8.35;;;;;;;20.16;68.18;101013.22;5005296;28;20121;-79
2023/08/27 07:43:14;;;;;;;17.30;7.93;;;;;;;20.14;68.45;101011.47;5007396;28;20062;-82
2023/08/27 07:45:42;;;;;;;13.50;7.70;;;;;;;20.12;68.58;101014.09;5009986;28;20057;-81
2023/08/27 07:48:18;;;;;;;16.65;7.65;;;;;;;20.13;68.39;101017.59;5005114;28;20097;-82
2023/08/27 07:50:48;;;;;;;15.95;9.70;;;;;;;20.12;68.54;101019.38;5006463;28;20041;-80
2023/08/27 07:53:17;;;;;;;14.00;7.93;;;;;;;20.12;68.22;101019.38;5015390;28;20421;-80
2023/08/27 07:55:45;;;;;;;13.85;7.53;;;;;;;20.07;68.12;101011.50;5006480;28;20046;-80
2023/08/27 07:58:16;;;;;;;15.00;8.32;;;;;;;20.08;68.16;101022.88;5002970;28;20058;-80
2023/08/27 08:00:45;;;;;;;12.63;7.45;;;;;;;20.04;68.90;101021.16;5019858;28;20044;-80
2023/08/27 08:03:14;;;;;;;16.20;8.68;;;;;;;20.00;68.81;101029.94;5029915;28;20030;-81
2023/08/27 08:05:42;;;;;;;17.02;8.27;;;;;;;19.94;68.76;101022.94;5028569;28;20050;-81
2023/08/27 08:08:15;;;;;;;14.13;8.43;;;;;;;19.92;68.87;101032.59;5012384;28;20046;-81
2023/08/27 08:10:43;;;;;;;13.73;8.13;;;;;;;19.89;68.73;101027.38;5008996;28;20046;-81
2023/08/27 08:13:13;;;;;;;15.60;8.23;;;;;;;19.86;69.18;101028.25;5008708;28;20061;-81
2023/08/27 08:15:41;;;;;;;13.48;7.70;;;;;;;19.70;68.91;101012.53;5004898;28;20117;-81
2023/08/27 08:18:10;;;;;;;14.88;7.78;;;;;;;19.79;69.63;101029.16;5005695;28;20042;-81
2023/08/27 08:20:45;;;;;;;15.60;8.52;;;;;;;19.76;70.01;101030.91;5006028;28;20054;-81
2023/08/27 08:23:16;;;;;;;16.02;10.05;;;;;;;19.74;69.64;101036.16;5006450;28;20501;-81
2023/08/27 08:25:45;;;;;;;15.77;7.70;;;;;;;19.69;69.66;101035.31;5013555;28;20061;-79
2023/08/27 08:28:14;;;;;;;15.32;7.53;;;;;;;19.63;70.29;101032.66;5009686;28;20073;-80
2023/08/27 08:30:50;;;;;;;17.38;7.88;;;;;;;19.53;71.00;101028.34;5006438;28;20038;-80
2023/08/27 08:33:18;;;;;;;12.70;7.35;;;;;;;19.50;71.55;101029.22;5009316;28;20111;-81
2023/08/27 08:35:47;;;;;;;14.88;9.45;;;;;;;19.46;71.58;101030.09;5009709;28;20060;-80
2023/08/27 08:38:27;;;;;;;;;;;;;;;;;;;;;
2023/08/27 08:41:01;;;;;;;15.27;8.63;;;;;;;19.37;72.52;101028.38;5005076;28;20407;-80
2023/08/27 08:43:32;;;;;;;15.30;9.10;;;;;;;19.36;71.83;101024.00;5005397;28;20102;-80
2023/08/27 08:46:07;;;;;;;16.83;8.68;;;;;;;19.35;72.57;101022.25;4988476;28;20097;-80
2023/08/27 08:48:39;;;;;;;13.55;7.90;;;;;;;19.27;73.57;101024.03;4990110;28;20121;-82
2023/08/27 08:51:08;;;;;;;18.58;8.63;;;;;;;19.30;73.42;101026.63;4989694;28;20057;-81
2023/08/27 08:53:56;;;;;;;19.65;8.30;;;;;;;19.24;74.14;101026.63;4982726;28;20051;-80
2023/08/27 08:56:29;;;;;;;13.77;7.97;;;;;;;19.15;74.80;101021.41;4981629;28;20046;-80
2023/08/27 08:59:02;;;;;;;13.25;7.50;;;;;;;19.05;76.54;101023.19;4981664;28;20046;-80
2023/08/27 09:01:32;;;;;;;14.60;7.63;;;;;;;18.96;76.56;101024.06;4986507;28;20129;-81
2023/08/27 09:04:02;;;;;;;16.00;7.50;;;;;;;18.94;76.27;101023.19;4985761;28;20076;-82
2023/08/27 09:06:33;;;;;;;16.60;8.18;;;;;;;18.88;77.93;101015.34;4989853;28;20050;-80
2023/08/27 09:09:15;;;;;;;17.15;8.80;;;;;;;18.83;77.81;101014.47;4988704;28;20078;-80
2023/08/27 09:11:45;;;;;;;14.07;7.57;;;;;;;18.81;77.92;101016.22;4989309;28;20050;-80
2023/08/27 09:14:15;;;;;;;16.27;8.80;;;;;;;18.79;77.87;101016.22;4986884;28;20046;-80
2023/08/27 09:16:48;;;;;;;13.65;8.70;;;;;;;18.78;77.78;101018.81;4991938;28;20051;-80
2023/08/27 09:19:17;;;;;;;15.52;9.00;;;;;;;18.75;78.47;101024.91;4988422;28;20073;-79
2023/08/27 09:21:46;;;;;;;16.17;8.52;;;;;;;18.68;79.18;101023.16;4977915;28;20039;-80
2023/08/27 09:24:17;;;;;;;15.32;8.48;;;;;;;18.65;78.97;101019.69;4984317;28;20061;-81
2023/08/27 09:26:53;;;;;;;16.55;7.80;;;;;;;18.67;78.42;101023.16;4989092;28;20051;-80
2023/08/27 09:29:23;;;;;;;18.60;8.95;;;;;;;18.65;78.76;101024.94;4985131;28;20054;-81
2023/08/27 09:31:57;;;;;;;12.15;6.88;;;;;;;18.61;79.33;101030.16;4984464;28;20054;-80
2023/08/27 09:34:38;;;;;;;16.40;8.77;;;;;;;18.58;79.09;101035.41;4989805;28;20057;-81
2023/08/27 09:37:10;;;;;;;14.98;8.55;;;;;;;18.58;79.48;101034.53;4987291;28;20385;-80
2023/08/27 09:39:50;;;;;;;20.63;7.68;;;;;;;18.57;80.05;101038.88;4986868;28;20540;-80
2023/08/27 09:42:19;;;;;;;17.13;8.52;;;;;;;18.57;80.06;101038.88;4988606;28;20154;-80
2023/08/27 09:44:51;;;;;;;16.75;8.05;;;;;;;18.58;79.97;101038.03;4999810;28;20062;-80
2023/08/27 09:47:33;;;;;;;13.43;7.55;;;;;;;18.61;79.76;101043.25;5006432;28;20042;-82
2023/08/27 09:50:06;;;;;;;13.60;7.20;;;;;;;18.54;79.94;101031.03;4979731;28;20050;-80
2023/08/27 09:52:34;;;;;;;;;;;;;;;18.70;79.53;101044.16;5004021;28;20446;-80
2023/08/27 09:55:13;;;;;;;13.35;8.02;;;;;;;18.72;79.41;101039.78;5006618;28;19928;-80
2023/08/27 09:57:49;;;;;;;16.83;8.50;;;;;;;18.74;79.06;101036.28;5009084;28;20112;-81
2023/08/27 10:00:23;;;;;;;15.40;8.10;;;;;;;18.74;79.02;101035.41;5007622;28;20671;-80
2023/08/27 10:02:56;;;;;;;13.35;7.13;;;;;;;18.67;79.18;101037.16;5005308;28;20042;-82
2023/08/27 10:05:28;;;;;;;14.98;8.30;;;;;;;18.63;79.07;101038.03;5004723;28;20492;-80
2023/08/27 10:08:01;;;;;;;15.70;7.07;;;;;;;18.60;79.51;101040.66;5000935;28;20533;-80
2023/08/27 10:10:36;;;;;;;15.95;8.52;;;;;;;18.52;80.29;101045.00;5001014;28;20184;-81
2023/08/27 10:13:06;;;;;;;17.45;8.77;;;;;;;18.41;81.35;101039.72;4999954;28;20125;-79
2023/08/27 10:15:36;;;;;;;17.25;8.73;;;;;;;18.34;80.99;101041.47;5002240;28;20108;-80
2023/08/27 10:18:07;;;;;;;12.82;6.78;;;;;;;18.26;82.24;101048.44;5003270;28;20053;-81
2023/08/27 10:20:39;;;;;;;16.58;8.05;;;;;;;18.20;82.73;101051.91;5020715;28;20045;-80
2023/08/27 10:23:09;;;;;;;14.32;7.95;;;;;;;18.16;83.01;101052.78;5013365;28;20047;-80
2023/08/27 10:25:46;;;;;;;17.88;7.28;;;;;;;18.12;83.45;101050.13;5014611;28;20682;-79
2023/08/27 10:28:18;;;;;;;15.20;8.10;;;;;;;18.05;83.97;101044.03;5012727;28;20106;-79
2023/08/27 10:30:46;;;;;;;;;;;;;;;17.96;85.06;101046.59;5015098;28;20642;-80
2023/08/27 10:33:15;;;;;;;12.43;7.22;;;;;;;17.89;85.04;101047.44;5012457;28;19929;-81
2023/08/27 10:35:45;;;;;;;13.65;7.22;;;;;;;17.85;85.94;101050.94;5016495;28;20053;-80
2023/08/27 10:38:18;;;;;;;14.55;7.05;;;;;;;17.77;86.69;101046.50;5008551;28;20519;-80
2023/08/27 10:40:49;;;;;;;13.82;7.43;;;;;;;17.74;85.83;101051.69;5006479;28;20109;-81
2023/08/27 10:43:19;;;;;;;13.07;8.13;;;;;;;17.73;86.16;101049.97;5010747;28;20105;-81
2023/08/27 10:45:59;;;;;;;19.45;7.43;;;;;;;17.72;86.91;101056.03;5011043;28;20500;-80
2023/08/27 10:48:30;;;;;;;13.70;8.60;;;;;;;17.65;86.68;101054.28;5009037;28;20042;-80
2023/08/27 10:51:21;;;;;;;12.63;6.75;;;;;;;17.60;87.26;101053.38;5012195;28;20050;-80
2023/08/27 10:54:12;;;;;;;16.02;7.28;;;;;;;17.58;87.57;101047.25;5018787;28;20162;-80
2023/08/27 10:56:47;;;;;;;12.57;7.45;;;;;;;17.61;87.20;101044.66;5014031;28;20113;-80
2023/08/27 10:59:42;;;;;;;16.45;6.78;;;;;;;17.65;86.92;101050.78;5010374;28;20042;-80
2023/08/27 11:02:11;;;;;;;12.98;6.72;;;;;;;17.66;86.71;101057.75;5000731;28;20069;-81
2023/08/27 11:04:42;;;;;;;13.75;7.85;;;;;;;17.64;87.74;101049.91;5020246;28;20054;-82
2023/08/27 11:07:14;;;;;;;17.48;8.93;;;;;;;17.59;87.88;101056.84;5019003;28;20069;-82
2023/08/27 11:09:50;;;;;;;13.02;7.32;;;;;;;17.54;88.22;101063.81;5009975;28;20073;-83
2023/08/27 11:12:35;;;;;;;13.48;7.15;;;;;;;17.47;89.65;101052.44;5008542;28;20144;-82
2023/08/27 11:15:12;;;;;;;14.13;6.63;;;;;;;17.42;90.49;101061.13;5010902;28;20042;-81
2023/08/27 11:17:44;;;;;;;12.63;7.03;;;;;;;17.40;90.55;101060.25;5006241;28;20053;-82
2023/08/27 11:20:24;;;;;;;13.98;6.90;;;;;;;17.38;90.59;101071.56;5009704;28;20054;-82
2023/08/27 11:22:58;;;;;;;14.77;6.93;;;;;;;17.37;89.99;101076.78;5010951;28;20054;-81
2023/08/27 11:25:38;;;;;;;16.25;7.10;;;;;;;17.34;91.20;101066.28;5010412;28;20053;-81
2023/08/27 11:28:12;;;;;;;16.67;7.50;;;;;;;17.33;90.69;101070.66;4999554;28;20530;-80
2023/08/27 11:30:43;;;;;;;12.63;6.78;;;;;;;17.29;91.28;101071.47;5008800;28;20071;-80
2023/08/27 11:33:21;;;;;;;13.00;7.10;;;;;;;17.27;91.05;101077.56;5005413;28;20741;-81
2023/08/27 11:35:49;;;;;;;13.50;7.07;;;;;;;17.25;91.10;101076.69;5012840;28;20288;-79